Time;durP1;ratioP1;P1;durP2;ratioP2;P2;SDS_P1;SDS_P2;PMS_P1;PMS_P2;Temp;Humidity;BMP_temperature;BMP_pressure;BME280_temperature;BME280_humidity;BME280_pressure;Samples;Min_cycle;Max_cycle;Signal;HPM_P1;HPM_P2
2021/08/28 00:00:35;;;;;;;17.33;5.03;;;15.60;99.90;;;;;;5094974;28;20036;-70
2021/08/28 00:03:01;;;;;;;8.18;4.28;;;15.60;99.90;;;;;;5094143;28;20427;-70
2021/08/28 00:05:27;;;;;;;8.90;4.32;;;15.60;99.90;;;;;;5095342;28;20452;-70
2021/08/28 00:07:56;;;;;;;9.13;4.78;;;15.70;99.90;;;;;;5095243;28;20115;-70
2021/08/28 00:10:22;;;;;;;10.55;4.72;;;15.70;99.90;;;;;;5093755;28;20036;-70
2021/08/28 00:12:48;;;;;;;12.50;4.57;;;15.70;99.90;;;;;;5094981;28;20587;-70
2021/08/28 00:15:14;;;;;;;12.55;5.05;;;15.70;99.90;;;;;;5094881;28;20044;-70
2021/08/28 00:17:41;;;;;;;13.23;6.07;;;15.70;99.90;;;;;;5093471;28;20173;-71
2021/08/28 00:20:09;;;;;;;16.65;5.03;;;15.70;99.90;;;;;;5094751;28;20044;-70
2021/08/28 00:22:35;;;;;;;11.30;5.00;;;15.80;99.90;;;;;;5093779;28;20052;-70
2021/08/28 00:25:01;;;;;;;11.15;5.03;;;15.80;99.90;;;;;;5094171;28;20044;-70
2021/08/28 00:27:26;;;;;;;11.05;5.20;;;15.80;99.90;;;;;;5094610;28;20068;-70
2021/08/28 00:29:52;;;;;;;9.57;4.85;;;15.80;99.90;;;;;;5093092;28;20050;-70
2021/08/28 00:32:17;;;;;;;12.82;5.57;;;15.80;99.90;;;;;;5094435;28;20039;-70
2021/08/28 00:34:43;;;;;;;11.23;5.72;;;15.80;99.90;;;;;;5093370;28;20476;-70
2021/08/28 00:37:09;;;;;;;13.95;5.57;;;15.90;99.90;;;;;;5094583;28;20101;-70
2021/08/28 00:39:34;;;;;;;10.82;5.25;;;15.90;99.90;;;;;;5092825;28;20194;-70
2021/08/28 00:42:00;;;;;;;12.18;5.35;;;15.90;99.90;;;;;;5094285;28;20529;-70
2021/08/28 00:44:26;;;;;;;13.65;5.28;;;15.90;99.90;;;;;;5093021;28;20075;-71
2021/08/28 00:46:55;;;;;;;16.02;7.25;;;15.90;99.90;;;;;;5094144;28;20036;-71
2021/08/28 00:49:21;;;;;;;12.07;6.25;;;15.90;99.90;;;;;;5094143;28;20056;-71
2021/08/28 00:51:47;;;;;;;14.95;6.20;;;15.90;99.90;;;;;;5094336;28;20043;-71
2021/08/28 00:54:12;;;;;;;17.27;5.75;;;15.90;99.90;;;;;;5093994;28;20036;-71
2021/08/28 00:56:39;;;;;;;14.25;5.90;;;15.90;99.90;;;;;;5094023;28;20039;-71
2021/08/28 00:59:05;;;;;;;12.13;5.68;;;15.90;99.90;;;;;;5093565;28;20108;-72
2021/08/28 01:01:42;;;;;;;15.40;6.20;;;15.90;99.90;;;;;;5094354;28;20115;-72
2021/08/28 01:04:13;;;;;;;14.25;5.72;;;15.90;99.90;;;;;;5094122;28;20048;-72
2021/08/28 01:07:08;;;;;;;14.23;6.18;;;15.90;99.90;;;;;;5093898;28;20040;-72
2021/08/28 01:09:36;;;;;;;12.43;5.90;;;15.90;99.90;;;;;;5093667;28;20082;-72
2021/08/28 01:12:05;;;;;;;12.63;5.85;;;15.90;99.90;;;;;;5092799;28;20040;-71
2021/08/28 01:14:32;;;;;;;28.55;6.28;;;16.00;99.90;;;;;;5094241;28;20032;-72
2021/08/28 01:17:02;;;;;;;11.07;5.28;;;15.90;99.90;;;;;;5093839;28;20488;-72
2021/08/28 01:20:01;;;;;;;12.23;6.45;;;15.90;99.90;;;;;;5093587;28;20040;-72
2021/08/28 01:22:27;;;;;;;12.30;5.88;;;15.90;99.90;;;;;;5092719;28;20372;-72
2021/08/28 01:24:57;;;;;;;11.52;5.80;;;15.90;99.90;;;;;;5092751;28;20040;-72
2021/08/28 01:27:29;;;;;;;11.73;6.45;;;15.90;99.90;;;;;;5092373;28;20044;-72
2021/08/28 01:29:55;;;;;;;10.07;5.95;;;15.80;99.90;;;;;;5092182;28;20605;-72
2021/08/28 01:32:22;;;;;;;14.88;6.13;;;15.80;99.90;;;;;;5093466;28;20040;-72
2021/08/28 01:34:48;;;;;;;13.27;6.13;;;15.80;99.90;;;;;;5092424;28;20062;-72
2021/08/28 01:37:17;;;;;;;11.85;5.63;;;15.80;99.90;;;;;;5093691;28;20115;-72
2021/08/28 01:39:44;;;;;;;12.77;5.90;;;15.80;99.90;;;;;;5093077;28;20043;-72
2021/08/28 01:42:12;;;;;;;12.15;6.53;;;15.80;99.90;;;;;;5093651;28;20123;-72
2021/08/28 01:44:39;;;;;;;13.45;6.65;;;15.80;99.90;;;;;;5093822;28;20417;-72
2021/08/28 01:47:07;;;;;;;13.55;6.05;;;15.70;99.90;;;;;;5093336;28;20032;-72
2021/08/28 01:49:34;;;;;;;10.30;5.97;;;15.70;99.90;;;;;;5093289;28;20040;-72
2021/08/28 01:52:00;;;;;;;13.65;6.38;;;15.70;99.90;;;;;;5093785;28;20461;-72
2021/08/28 01:54:25;;;;;;;13.25;6.40;;;15.70;99.90;;;;;;5092437;28;20086;-72
2021/08/28 01:56:51;;;;;;;8.10;4.93;;;15.70;99.90;;;;;;5093456;28;20044;-72
2021/08/28 01:59:16;;;;;;;9.85;5.65;;;15.70;99.90;;;;;;5096685;28;20496;-72
2021/08/28 02:01:42;;;;;;;13.55;5.00;;;15.60;99.90;;;;;;5097817;28;20040;-72
2021/08/28 02:04:08;;;;;;;13.40;4.95;;;15.70;99.90;;;;;;5096188;28;20120;-72
2021/08/28 02:06:36;;;;;;;9.05;4.80;;;15.70;99.90;;;;;;5097519;28;20032;-71
2021/08/28 02:09:21;;;;;;;9.70;5.00;;;15.70;99.90;;;;;;5097000;28;20040;-72
2021/08/28 02:11:58;;;;;;;10.88;4.88;;;15.70;99.90;;;;;;5097297;28;20122;-72
2021/08/28 02:14:58;;;;;;;12.20;5.78;;;15.60;99.90;;;;;;5096298;28;20494;-72
2021/08/28 02:17:26;;;;;;;18.70;5.57;;;15.70;99.90;;;;;;5096494;28;20044;-72
2021/08/28 02:19:55;;;;;;;12.70;5.00;;;15.60;99.90;;;;;;5096753;28;20496;-72
2021/08/28 02:22:25;;;;;;;13.90;5.60;;;15.60;99.90;;;;;;5097000;28;20031;-72
2021/08/28 02:25:00;;;;;;;12.88;5.47;;;15.60;99.90;;;;;;5096888;28;20044;-72
2021/08/28 02:27:29;;;;;;;10.35;5.20;;;15.60;99.90;;;;;;5097293;28;20090;-72
2021/08/28 02:30:01;;;;;;;14.70;6.55;;;15.60;99.90;;;;;;5097182;28;20044;-72
2021/08/28 02:32:28;;;;;;;11.00;5.65;;;15.60;99.90;;;;;;5096892;28;20032;-71
2021/08/28 02:34:56;;;;;;;12.18;4.95;;;15.60;99.90;;;;;;5097087;28;20032;-72
2021/08/28 02:37:23;;;;;;;21.05;5.70;;;15.60;99.90;;;;;;5096924;28;20415;-72
2021/08/28 02:39:49;;;;;;;17.95;5.75;;;15.60;99.90;;;;;;5096492;28;20047;-72
2021/08/28 02:42:15;;;;;;;12.02;5.65;;;15.60;99.90;;;;;;5096650;28;20411;-72
2021/08/28 02:44:43;;;;;;;10.10;5.30;;;15.60;99.90;;;;;;5096743;28;20101;-72
2021/08/28 02:47:10;;;;;;;12.70;6.00;;;15.60;99.90;;;;;;5096547;28;20036;-72
2021/08/28 02:49:39;;;;;;;13.68;5.90;;;15.60;99.90;;;;;;5096599;28;20150;-72
2021/08/28 02:52:06;;;;;;;14.30;6.53;;;15.60;99.90;;;;;;5096554;28;20418;-72
2021/08/28 02:54:33;;;;;;;11.82;5.93;;;15.60;99.90;;;;;;5096666;28;20036;-72
2021/08/28 02:57:00;;;;;;;12.90;6.45;;;15.60;99.90;;;;;;5095593;28;20419;-72
2021/08/28 02:59:28;;;;;;;13.57;6.10;;;15.60;99.90;;;;;;5094790;28;20055;-72
2021/08/28 03:01:54;;;;;;;16.58;6.95;;;15.60;99.90;;;;;;5096220;28;20044;-72
2021/08/28 03:04:22;;;;;;;15.27;7.15;;;15.60;99.90;;;;;;5078219;28;20047;-72
2021/08/28 03:06:50;;;;;;;14.90;6.30;;;15.60;99.90;;;;;;5096216;28;20441;-70
2021/08/28 03:09:16;;;;;;;13.43;7.45;;;15.60;99.90;;;;;;5094686;28;20085;-71
2021/08/28 03:11:44;;;;;;;16.77;8.45;;;15.60;99.90;;;;;;5095045;28;20044;-71
2021/08/28 03:14:10;;;;;;;13.65;7.40;;;15.60;99.90;;;;;;5095174;28;20396;-71
2021/08/28 03:16:38;;;;;;;16.33;7.22;;;15.60;99.90;;;;;;5094591;28;20050;-71
2021/08/28 03:19:06;;;;;;;13.45;7.43;;;15.60;99.90;;;;;;5094832;28;20044;-72
2021/08/28 03:21:33;;;;;;;15.95;7.57;;;15.60;99.90;;;;;;5095815;28;20036;-71
2021/08/28 03:24:00;;;;;;;18.27;7.82;;;15.60;99.90;;;;;;5096289;28;20373;-71
2021/08/28 03:26:28;;;;;;;20.15;8.55;;;15.60;99.90;;;;;;5096331;28;20083;-72
2021/08/28 03:28:56;;;;;;;13.43;8.05;;;15.60;99.90;;;;;;5095302;28;20118;-72
2021/08/28 03:31:24;;;;;;;15.40;7.10;;;15.60;99.90;;;;;;5094455;28;20036;-71
2021/08/28 03:33:53;;;;;;;12.95;7.15;;;15.50;99.90;;;;;;5077804;28;20040;-72
2021/08/28 03:36:19;;;;;;;21.67;8.57;;;15.50;99.90;;;;;;5077708;28;20048;-72
2021/08/28 03:38:46;;;;;;;18.00;7.40;;;15.50;99.90;;;;;;5095277;28;20415;-72
2021/08/28 03:41:12;;;;;;;14.80;7.28;;;15.50;99.90;;;;;;5095801;28;20036;-71
2021/08/28 03:43:38;;;;;;;12.50;6.38;;;15.50;99.90;;;;;;5094236;28;20054;-72
2021/08/28 03:46:04;;;;;;;13.57;7.45;;;15.60;99.90;;;;;;5077674;28;20071;-72
2021/08/28 03:48:31;;;;;;;12.65;7.00;;;15.50;99.90;;;;;;5095295;28;20043;-72
2021/08/28 03:50:58;;;;;;;15.32;8.45;;;15.60;99.90;;;;;;5095473;28;20036;-72
2021/08/28 03:53:24;;;;;;;19.13;7.10;;;15.60;99.90;;;;;;5095513;28;20040;-72
2021/08/28 03:55:49;;;;;;;16.30;8.32;;;15.60;99.90;;;;;;5095288;28;20032;-72
2021/08/28 03:58:15;;;;;;;11.88;7.47;;;15.60;99.90;;;;;;5095044;28;20044;-72
2021/08/28 04:00:41;;;;;;;14.35;7.65;;;15.60;99.90;;;;;;5093811;28;20040;-71
2021/08/28 04:03:07;;;;;;;16.23;7.65;;;15.60;99.90;;;;;;5093859;28;20036;-71
2021/08/28 04:05:32;;;;;;;15.43;7.55;;;15.60;99.90;;;;;;5093782;28;20059;-72
2021/08/28 04:07:58;;;;;;;16.25;7.50;;;15.60;99.90;;;;;;5095133;28;20072;-72
2021/08/28 04:10:25;;;;;;;13.23;7.15;;;15.60;99.90;;;;;;5094898;28;20490;-72
2021/08/28 04:12:50;;;;;;;12.65;6.95;;;15.60;99.90;;;;;;5094963;28;20093;-72
2021/08/28 04:15:16;;;;;;;15.70;7.65;;;15.60;99.90;;;;;;5095021;28;20036;-72
2021/08/28 04:17:41;;;;;;;18.35;8.00;;;15.70;99.90;;;;;;5094582;28;20040;-72
2021/08/28 04:20:07;;;;;;;13.10;7.68;;;15.70;99.90;;;;;;5094316;28;20036;-72
2021/08/28 04:22:33;;;;;;;16.42;7.57;;;15.60;99.90;;;;;;5093794;28;20055;-72
2021/08/28 04:24:59;;;;;;;20.58;8.68;;;15.60;99.90;;;;;;5095101;28;20032;-72
2021/08/28 04:27:24;;;;;;;22.27;7.85;;;15.60;99.90;;;;;;5094751;28;20084;-71
2021/08/28 04:29:50;;;;;;;16.10;7.50;;;15.70;99.90;;;;;;5094437;28;20040;-72
2021/08/28 04:32:15;;;;;;;17.65;8.23;;;15.70;99.90;;;;;;5094625;28;20423;-72
2021/08/28 04:34:41;;;;;;;15.60;7.07;;;15.70;99.90;;;;;;5094735;28;20462;-72
2021/08/28 04:37:07;;;;;;;13.63;6.85;;;15.70;99.90;;;;;;5094681;28;20036;-72
2021/08/28 04:39:32;;;;;;;20.80;7.95;;;15.70;99.90;;;;;;5093217;28;20036;-72
2021/08/28 04:41:58;;;;;;;19.42;7.95;;;15.70;99.90;;;;;;5094560;28;20388;-72
2021/08/28 04:44:23;;;;;;;16.95;7.30;;;15.70;99.90;;;;;;5094499;28;20119;-72
2021/08/28 04:46:49;;;;;;;14.95;7.68;;;15.70;99.90;;;;;;5094713;28;20036;-72
2021/08/28 04:49:15;;;;;;;19.58;8.15;;;15.70;99.90;;;;;;5094221;28;20054;-72
2021/08/28 04:51:40;;;;;;;15.98;6.60;;;15.70;99.90;;;;;;5094285;28;20101;-71
2021/08/28 04:54:06;;;;;;;13.95;8.05;;;15.80;99.90;;;;;;5092931;28;20460;-72
2021/08/28 04:56:32;;;;;;;15.50;6.78;;;15.80;99.90;;;;;;5092769;28;20069;-71
2021/08/28 04:58:57;;;;;;;16.75;7.30;;;15.80;99.90;;;;;;5092379;28;20040;-72
2021/08/28 05:01:23;;;;;;;15.13;6.95;;;15.80;99.90;;;;;;5094061;28;20032;-72
2021/08/28 05:03:48;;;;;;;18.73;7.18;;;15.80;99.90;;;;;;5075934;28;20491;-72
2021/08/28 05:06:14;;;;;;;17.92;7.25;;;15.80;99.90;;;;;;5092939;28;20040;-72
2021/08/28 05:08:39;;;;;;;10.80;6.13;;;15.80;99.90;;;;;;5093654;28;20495;-71
2021/08/28 05:11:05;;;;;;;12.63;5.72;;;15.80;99.90;;;;;;5092994;28;20048;-71
2021/08/28 05:13:31;;;;;;;12.48;6.72;;;15.80;99.90;;;;;;5094139;28;20048;-71
2021/08/28 05:15:57;;;;;;;14.02;6.68;;;15.80;99.90;;;;;;5094047;28;20040;-72
2021/08/28 05:18:22;;;;;;;13.73;6.60;;;15.80;99.90;;;;;;5093897;28;20036;-71
2021/08/28 05:20:48;;;;;;;13.98;6.55;;;15.90;99.90;;;;;;5093305;28;20487;-71
2021/08/28 05:23:13;;;;;;;12.52;6.20;;;15.80;99.90;;;;;;5075496;28;20166;-71
2021/08/28 05:25:39;;;;;;;13.93;5.60;;;15.80;99.90;;;;;;5092525;28;20120;-71
2021/08/28 05:28:05;;;;;;;14.00;6.07;;;15.90;99.90;;;;;;5093612;28;20095;-71
2021/08/28 05:30:31;;;;;;;16.55;7.05;;;15.90;99.90;;;;;;5093255;28;20032;-71
2021/08/28 05:32:56;;;;;;;11.27;5.85;;;15.90;99.90;;;;;;5092672;28;20042;-71
2021/08/28 05:35:22;;;;;;;13.27;6.03;;;15.90;99.90;;;;;;5093703;28;20036;-71
2021/08/28 05:37:47;;;;;;;15.38;6.05;;;15.90;99.90;;;;;;5093598;28;20036;-71
2021/08/28 05:40:14;;;;;;;17.92;7.28;;;15.90;99.90;;;;;;5091940;28;20044;-71
2021/08/28 05:42:40;;;;;;;11.82;6.38;;;15.90;99.90;;;;;;5093540;28;20123;-71
2021/08/28 05:45:09;;;;;;;14.35;6.20;;;15.90;99.90;;;;;;5092430;28;20039;-71
2021/08/28 05:47:34;;;;;;;19.80;7.80;;;15.90;99.90;;;;;;5093807;28;20430;-72
2021/08/28 05:50:00;;;;;;;12.30;6.03;;;16.00;99.90;;;;;;5093794;28;20044;-72
2021/08/28 05:52:26;;;;;;;14.65;5.78;;;15.90;99.90;;;;;;5093481;28;20040;-71
2021/08/28 05:54:51;;;;;;;11.43;5.53;;;16.00;99.90;;;;;;5093371;28;20036;-71
2021/08/28 05:57:17;;;;;;;18.33;6.82;;;16.10;99.90;;;;;;5093554;28;20062;-71
2021/08/28 05:59:43;;;;;;;15.57;6.35;;;16.10;99.90;;;;;;5091780;28;20051;-72
2021/08/28 06:02:08;;;;;;;13.05;5.00;;;16.10;99.90;;;;;;5093601;28;20425;-72
2021/08/28 06:04:34;;;;;;;16.30;5.80;;;16.10;99.90;;;;;;5093587;28;20181;-71
2021/08/28 06:07:02;;;;;;;14.60;5.80;;;16.10;99.90;;;;;;5093549;28;20044;-71
2021/08/28 06:09:28;;;;;;;14.90;5.32;;;16.20;99.90;;;;;;5092962;28;20488;-71
2021/08/28 06:11:55;;;;;;;12.32;6.70;;;16.20;99.90;;;;;;5093263;28;20040;-71
2021/08/28 06:14:20;;;;;;;13.93;6.30;;;16.20;99.90;;;;;;5093313;28;20044;-71
2021/08/28 06:16:46;;;;;;;16.23;6.10;;;16.20;99.90;;;;;;5091907;28;20115;-71
2021/08/28 06:19:12;;;;;;;12.65;6.30;;;16.20;99.90;;;;;;5092636;28;20063;-71
2021/08/28 06:21:37;;;;;;;14.07;5.93;;;16.20;99.90;;;;;;5092972;28;20036;-71
2021/08/28 06:24:03;;;;;;;13.65;5.43;;;16.20;99.90;;;;;;5092985;28;20447;-71
2021/08/28 06:26:29;;;;;;;14.55;5.10;;;16.20;99.90;;;;;;5091708;28;20039;-71
2021/08/28 06:28:55;;;;;;;18.40;5.72;;;16.20;99.90;;;;;;5091620;28;20052;-72
2021/08/28 06:31:23;;;;;;;11.02;5.22;;;16.30;99.90;;;;;;5074846;28;20050;-71
2021/08/28 06:33:49;;;;;;;8.90;4.82;;;16.30;99.90;;;;;;5091569;28;20044;-70
2021/08/28 06:36:17;;;;;;;14.50;5.07;;;16.30;99.90;;;;;;5092791;28;20043;-70
2021/08/28 06:38:43;;;;;;;9.50;4.68;;;16.40;99.90;;;;;;5093064;28;20044;-71
2021/08/28 06:41:08;;;;;;;10.13;4.82;;;16.30;99.90;;;;;;5091623;28;20086;-71
2021/08/28 06:43:34;;;;;;;11.18;5.25;;;16.30;99.90;;;;;;5093635;28;20384;-71
2021/08/28 06:45:59;;;;;;;13.70;5.40;;;16.30;99.90;;;;;;5096990;28;20072;-70
2021/08/28 06:48:25;;;;;;;10.65;4.55;;;16.30;99.90;;;;;;5096446;28;20054;-70
2021/08/28 06:50:51;;;;;;;8.95;4.80;;;16.30;99.90;;;;;;5094784;28;20126;-70
2021/08/28 06:53:19;;;;;;;9.70;5.82;;;16.30;99.90;;;;;;5096950;28;20042;-70
2021/08/28 06:55:45;;;;;;;9.40;3.88;;;16.30;99.90;;;;;;5095416;28;20048;-70
2021/08/28 06:58:10;;;;;;;10.63;5.53;;;16.30;99.90;;;;;;5094850;28;20036;-70
2021/08/28 07:00:36;;;;;;;12.65;4.97;;;16.30;99.90;;;;;;5095919;28;20028;-70
2021/08/28 07:03:01;;;;;;;8.20;3.97;;;16.30;99.90;;;;;;5096369;28;20488;-70
2021/08/28 07:05:27;;;;;;;9.80;4.50;;;16.30;99.90;;;;;;5096603;28;20032;-70
2021/08/28 07:07:53;;;;;;;15.63;4.70;;;16.50;99.90;;;;;;5096416;28;20119;-70
2021/08/28 07:10:19;;;;;;;13.50;5.57;;;16.60;99.90;;;;;;5096141;28;20091;-70
2021/08/28 07:12:45;;;;;;;8.32;4.60;;;16.70;99.90;;;;;;5077893;28;20036;-70
2021/08/28 07:15:11;;;;;;;11.82;4.57;;;16.80;99.90;;;;;;5096235;28;20438;-70
2021/08/28 07:17:36;;;;;;;9.63;4.28;;;16.80;99.90;;;;;;5095951;28;20036;-70
2021/08/28 07:20:03;;;;;;;9.88;3.63;;;16.90;99.90;;;;;;5077556;28;20040;-70
2021/08/28 07:22:29;;;;;;;8.75;4.28;;;16.90;99.90;;;;;;5095718;28;20055;-70
2021/08/28 07:24:54;;;;;;;8.52;3.92;;;16.90;99.90;;;;;;5094710;28;20718;-71
2021/08/28 07:27:23;;;;;;;12.88;3.95;;;16.90;99.90;;;;;;5096075;28;20123;-70
2021/08/28 07:29:50;;;;;;;9.95;4.07;;;16.90;99.90;;;;;;5094642;28;20052;-70
2021/08/28 07:32:16;;;;;;;9.73;4.28;;;16.90;99.90;;;;;;5096267;28;20047;-70
2021/08/28 07:34:41;;;;;;;8.55;3.75;;;17.00;99.90;;;;;;5095656;28;20119;-71
2021/08/28 07:37:07;;;;;;;10.40;3.85;;;17.00;99.90;;;;;;5096250;28;20040;-70
2021/08/28 07:39:33;;;;;;;10.68;3.75;;;17.10;99.90;;;;;;5095478;28;20072;-70
2021/08/28 07:41:59;;;;;;;9.95;4.32;;;17.00;99.90;;;;;;5095647;28;20086;-70
2021/08/28 07:44:25;;;;;;;11.32;3.92;;;17.10;99.90;;;;;;5094306;28;20451;-70
2021/08/28 07:46:50;;;;;;;6.38;3.00;;;17.50;99.90;;;;;;5095568;28;20040;-69
2021/08/28 07:49:16;;;;;;;9.30;3.50;;;17.90;99.90;;;;;;5077099;28;20407;-70
2021/08/28 07:51:42;;;;;;;9.18;3.50;;;17.80;99.90;;;;;;5095281;28;20044;-70
2021/08/28 07:54:07;;;;;;;8.48;3.10;;;17.90;99.90;;;;;;5094224;28;20365;-70
2021/08/28 07:56:33;;;;;;;8.82;3.85;;;17.90;99.90;;;;;;5094328;28;20380;-70
2021/08/28 07:58:59;;;;;;;9.23;3.42;;;17.80;99.90;;;;;;5094801;28;20044;-70
2021/08/28 08:01:24;;;;;;;7.13;3.65;;;17.80;99.90;;;;;;5093852;28;20036;-70
2021/08/28 08:03:50;;;;;;;12.02;3.45;;;17.70;99.90;;;;;;5095904;28;20032;-71
2021/08/28 08:06:16;;;;;;;7.18;3.30;;;17.60;99.90;;;;;;5093837;28;20040;-71
2021/08/28 08:08:41;;;;;;;10.13;4.10;;;17.60;99.90;;;;;;5094932;28;20070;-70
2021/08/28 08:11:08;;;;;;;9.15;3.42;;;17.60;99.90;;;;;;5095096;28;20050;-68
2021/08/28 08:13:33;;;;;;;7.25;3.17;;;17.60;99.90;;;;;;5093974;28;20044;-70
2021/08/28 08:15:59;;;;;;;8.52;3.38;;;17.60;99.90;;;;;;5095049;28;20059;-70
2021/08/28 08:18:25;;;;;;;7.88;3.25;;;17.60;99.90;;;;;;5094896;28;20455;-69
2021/08/28 08:20:50;;;;;;;8.40;3.15;;;17.90;99.90;;;;;;5094746;28;20466;-70
2021/08/28 08:23:16;;;;;;;10.85;3.20;;;18.20;99.90;;;;;;5076940;28;20090;-69
2021/08/28 08:25:42;;;;;;;7.00;2.85;;;18.20;99.90;;;;;;5093411;28;20079;-71
2021/08/28 08:28:08;;;;;;;8.45;4.72;;;18.10;99.90;;;;;;5093699;28;20062;-70
2021/08/28 08:30:33;;;;;;;6.68;3.08;;;18.10;99.90;;;;;;5093562;28;20048;-70
2021/08/28 08:32:59;;;;;;;6.10;2.55;;;18.50;99.90;;;;;;5094497;28;20036;-70
2021/08/28 08:35:25;;;;;;;5.00;2.40;;;18.90;99.90;;;;;;5094552;28;20040;-69
2021/08/28 08:37:52;;;;;;;4.30;2.65;;;18.70;99.90;;;;;;5094703;28;20055;-70
2021/08/28 08:40:19;;;;;;;7.03;3.00;;;18.40;99.90;;;;;;5094552;28;20407;-70
2021/08/28 08:42:47;;;;;;;9.15;2.30;;;18.50;99.90;;;;;;5094723;28;20055;-70
2021/08/28 08:45:13;;;;;;;5.60;2.30;;;18.40;99.90;;;;;;5094516;28;20557;-70
2021/08/28 08:47:39;;;;;;;6.20;1.95;;;18.70;99.90;;;;;;5093680;28;20044;-71
2021/08/28 08:50:06;;;;;;;5.57;2.10;;;18.80;99.90;;;;;;5094034;28;20036;-70
2021/08/28 08:52:32;;;;;;;5.93;2.10;;;18.80;99.90;;;;;;5094665;28;20044;-71
2021/08/28 08:54:58;;;;;;;5.10;2.00;;;19.20;99.90;;;;;;5094500;28;20036;-70
2021/08/28 08:57:24;;;;;;;4.13;2.38;;;19.40;99.90;;;;;;5093130;28;20480;-69
2021/08/28 08:59:50;;;;;;;4.85;1.55;;;19.60;99.90;;;;;;5093822;28;20571;-70
2021/08/28 09:02:16;;;;;;;6.50;2.10;;;19.40;99.90;;;;;;5094068;28;20115;-69
2021/08/28 09:04:41;;;;;;;5.70;1.80;;;19.70;99.90;;;;;;5094399;28;20044;-69
2021/08/28 09:07:12;;;;;;;5.22;1.80;;;19.60;99.90;;;;;;5094191;28;20068;-71
2021/08/28 09:09:38;;;;;;;4.95;2.33;;;19.50;99.90;;;;;;5092703;28;20078;-69
2021/08/28 09:12:08;;;;;;;4.38;1.95;;;19.40;99.90;;;;;;5094141;28;20396;-69
2021/08/28 09:14:34;;;;;;;5.75;2.30;;;19.10;99.90;;;;;;5094203;28;20119;-69
2021/08/28 09:17:12;;;;;;;5.18;1.98;;;18.70;99.90;;;;;;5093693;28;20124;-69
2021/08/28 09:19:39;;;;;;;7.35;2.13;;;18.40;99.90;;;;;;5092125;28;20039;-69
2021/08/28 09:22:20;;;;;;;8.73;2.08;;;18.40;99.90;;;;;;5093711;28;20075;-70
2021/08/28 09:24:48;;;;;;;4.55;1.70;;;18.40;99.90;;;;;;5092299;28;20051;-70
2021/08/28 09:27:40;;;;;;;4.75;1.88;;;18.20;99.90;;;;;;5093482;28;20033;-69
2021/08/28 09:30:27;;;;;;;5.57;1.92;;;18.10;99.90;;;;;;5093613;28;20434;-70
2021/08/28 09:33:01;;;;;;;6.90;2.35;;;17.90;99.90;;;;;;5093384;28;20537;-70
2021/08/28 09:35:33;;;;;;;6.03;2.00;;;18.00;99.90;;;;;;5093652;28;20040;-70
2021/08/28 09:38:04;;;;;;;5.53;2.42;;;17.90;99.90;;;;;;5093614;28;20149;-70
2021/08/28 09:40:36;;;;;;;5.25;1.85;;;17.90;99.90;;;;;;5091843;28;20040;-70
2021/08/28 09:43:05;;;;;;;5.13;2.05;;;17.80;99.90;;;;;;5075337;28;20086;-70
2021/08/28 09:45:31;;;;;;;6.93;2.25;;;17.70;99.90;;;;;;5093629;28;20114;-70
2021/08/28 09:47:57;;;;;;;4.75;2.05;;;17.70;99.90;;;;;;5093152;28;20044;-71
2021/08/28 09:50:36;;;;;;;5.60;2.22;;;17.70;99.90;;;;;;5091654;28;20431;-70
2021/08/28 09:53:11;;;;;;;6.55;2.03;;;17.50;99.90;;;;;;5091893;28;20044;-70
2021/08/28 09:55:39;;;;;;;5.15;2.00;;;17.60;99.90;;;;;;5091944;28;20048;-70
2021/08/28 09:58:07;;;;;;;9.20;2.50;;;17.60;99.90;;;;;;5093373;28;20388;-70
2021/08/28 10:00:40;;;;;;;6.57;2.13;;;17.60;99.90;;;;;;5093015;28;20028;-70
2021/08/28 10:03:06;;;;;;;5.93;2.28;;;17.70;99.90;;;;;;5091912;28;20051;-70
2021/08/28 10:05:36;;;;;;;5.72;2.30;;;17.70;99.90;;;;;;5092017;28;20035;-70
2021/08/28 10:08:07;;;;;;;6.50;2.03;;;17.70;99.90;;;;;;5093720;28;20042;-70
2021/08/28 10:10:36;;;;;;;5.40;1.83;;;17.70;99.90;;;;;;5093253;28;20141;-70
2021/08/28 10:13:04;;;;;;;5.53;2.20;;;17.70;99.90;;;;;;5092912;28;20051;-70
2021/08/28 10:15:31;;;;;;;6.50;2.05;;;17.70;99.90;;;;;;5093686;28;20032;-70
2021/08/28 10:17:59;;;;;;;6.68;1.77;;;17.70;99.90;;;;;;5093035;28;20036;-71
2021/08/28 10:20:26;;;;;;;5.57;1.58;;;17.80;99.90;;;;;;5096591;28;20115;-70
2021/08/28 10:22:55;;;;;;;10.73;2.67;;;17.70;99.90;;;;;;5097162;28;20071;-70
2021/08/28 10:25:23;;;;;;;9.98;1.88;;;17.80;99.90;;;;;;5096992;28;20123;-70
2021/08/28 10:27:49;;;;;;;5.00;1.80;;;17.90;99.90;;;;;;5097172;28;20036;-70
2021/08/28 10:30:17;;;;;;;5.88;1.77;;;18.10;99.90;;;;;;5095458;28;20460;-71
2021/08/28 10:32:43;;;;;;;7.57;2.22;;;18.10;99.90;;;;;;5096836;28;20036;-70
2021/08/28 10:35:10;;;;;;;3.90;1.33;;;18.20;99.90;;;;;;5095711;28;20040;-70
2021/08/28 10:37:36;;;;;;;4.72;1.33;;;18.20;99.90;;;;;;5096986;28;20040;-70
2021/08/28 10:40:06;;;;;;;10.15;2.40;;;18.00;99.90;;;;;;5095272;28;20047;-70
2021/08/28 10:42:32;;;;;;;5.47;2.00;;;18.00;99.90;;;;;;5095155;28;20044;-70
2021/08/28 10:45:00;;;;;;;5.60;2.10;;;18.20;99.90;;;;;;5096970;28;20060;-70
2021/08/28 10:47:32;;;;;;;6.55;1.50;;;18.20;99.90;;;;;;5096813;28;20093;-70
2021/08/28 10:50:04;;;;;;;7.30;1.88;;;18.00;99.90;;;;;;5096318;28;20502;-70
2021/08/28 10:52:33;;;;;;;5.57;1.70;;;17.90;99.90;;;;;;5095453;28;20040;-70
2021/08/28 10:55:10;;;;;;;6.45;1.73;;;17.80;99.90;;;;;;5096548;28;20365;-70
2021/08/28 10:57:36;;;;;;;8.15;1.83;;;17.70;99.90;;;;;;5096432;28;20415;-70
2021/08/28 11:00:14;;;;;;;8.98;1.77;;;17.70;99.90;;;;;;5096615;28;20071;-70
2021/08/28 11:02:46;;;;;;;5.90;1.88;;;17.80;99.90;;;;;;5096330;28;20036;-70
2021/08/28 11:05:36;;;;;;;5.60;1.70;;;17.70;99.90;;;;;;5096689;28;20081;-70
2021/08/28 11:08:18;;;;;;;8.52;2.10;;;17.80;99.90;;;;;;5095038;28;20048;-70
2021/08/28 11:11:41;;;;;;;5.85;1.88;;;17.90;99.90;;;;;;5095202;28;20047;-70
2021/08/28 11:14:09;;;;;;;6.72;1.60;;;17.90;99.90;;;;;;5096267;28;20384;-70
2021/08/28 11:16:50;;;;;;;4.97;1.95;;;17.90;99.90;;;;;;5096241;28;20431;-70
2021/08/28 11:19:25;;;;;;;4.75;1.83;;;17.90;99.90;;;;;;5095800;28;20119;-70
2021/08/28 11:21:52;;;;;;;6.38;1.92;;;18.10;99.90;;;;;;5094890;28;20096;-70
2021/08/28 11:24:26;;;;;;;8.10;1.55;;;18.30;99.90;;;;;;5096191;28;20085;-70
2021/08/28 11:26:54;;;;;;;8.70;1.73;;;18.40;99.90;;;;;;5096259;28;20032;-70
2021/08/28 11:29:24;;;;;;;5.97;2.00;;;18.50;99.90;;;;;;5094120;28;20048;-70
2021/08/28 11:32:13;;;;;;;5.57;1.52;;;18.70;99.90;;;;;;5094884;28;20039;-71
2021/08/28 11:34:42;;;;;;;8.02;1.88;;;18.60;99.90;;;;;;5095828;28;20079;-71
2021/08/28 11:37:26;;;;;;;7.10;2.80;;;18.50;99.90;;;;;;5096001;28;20043;-71
2021/08/28 11:39:58;;;;;;;6.03;1.42;;;18.40;99.90;;;;;;5094254;28;20385;-70
2021/08/28 11:42:25;;;;;;;4.25;1.50;;;18.50;99.90;;;;;;5094696;28;20408;-70
2021/08/28 11:44:53;;;;;;;14.00;5.32;;;18.50;99.90;;;;;;5095536;28;20071;-70
2021/08/28 11:47:20;;;;;;;4.13;1.58;;;18.50;99.90;;;;;;5095783;28;20036;-68
2021/08/28 11:49:50;;;;;;;10.70;2.80;;;18.60;99.90;;;;;;5095579;28;20058;-69
2021/08/28 11:52:17;;;;;;;6.85;2.30;;;18.70;99.90;;;;;;5095648;28;20036;-69
2021/08/28 11:54:45;;;;;;;6.85;1.77;;;18.60;99.90;;;;;;5095790;28;20047;-68
2021/08/28 11:57:11;;;;;;;4.32;1.27;;;18.50;99.90;;;;;;5094056;28;20051;-70
2021/08/28 11:59:38;;;;;;;5.60;1.58;;;18.40;99.90;;;;;;5094860;28;20040;-70
2021/08/28 12:02:04;;;;;;;5.40;1.90;;;18.30;99.90;;;;;;5095517;28;20028;-70
2021/08/28 12:04:35;;;;;;;7.97;1.92;;;18.40;99.90;;;;;;5094091;28;20070;-70
2021/08/28 12:07:01;;;;;;;4.15;1.65;;;18.40;99.90;;;;;;5095154;28;20400;-71
2021/08/28 12:09:27;;;;;;;3.53;1.20;;;18.50;99.90;;;;;;5093809;28;20039;-70
2021/08/28 12:11:55;;;;;;;3.08;1.30;;;18.40;99.90;;;;;;5095582;28;20040;-70
2021/08/28 12:14:25;;;;;;;10.05;1.75;;;18.20;99.90;;;;;;5094936;28;20475;-70
2021/08/28 12:16:50;;;;;;;3.25;1.30;;;18.10;99.90;;;;;;5094888;28;20476;-69
2021/08/28 12:19:19;;;;;;;8.18;1.50;;;18.00;99.90;;;;;;5094654;28;20067;-68
2021/08/28 12:21:47;;;;;;;5.20;1.40;;;18.00;99.90;;;;;;5093693;28;20510;-69
2021/08/28 12:24:17;;;;;;;3.63;1.30;;;18.00;99.90;;;;;;5093815;28;20055;-69
2021/08/28 12:26:48;;;;;;;7.15;1.48;;;18.00;99.90;;;;;;5095694;28;20384;-69
2021/08/28 12:29:23;;;;;;;2.30;0.95;;;18.00;99.90;;;;;;5093186;28;20510;-69
2021/08/28 12:31:53;;;;;;;4.32;1.10;;;18.00;99.90;;;;;;5094769;28;20032;-69
2021/08/28 12:34:21;;;;;;;4.63;1.20;;;18.10;99.90;;;;;;5095352;28;20036;-70
2021/08/28 12:36:47;;;;;;;4.80;1.30;;;18.10;99.90;;;;;;5094710;28;20499;-70
2021/08/28 12:39:14;;;;;;;3.22;1.20;;;18.30;99.90;;;;;;5092850;28;20468;-71
2021/08/28 12:41:40;;;;;;;4.05;1.17;;;18.10;99.90;;;;;;5094331;28;20388;-70
2021/08/28 12:44:06;;;;;;;2.85;1.10;;;18.20;99.90;;;;;;5094895;28;20462;-69